Time;durP1;ratioP1;P1;durP2;ratioP2;P2;SDS_P1;SDS_P2;PMS_P1;PMS_P2;Temp;Humidity;BMP_temperature;BMP_pressure;BME280_temperature;BME280_humidity;BME280_pressure;Samples;Min_cycle;Max_cycle;Signal;HPM_P1;HPM_P2
2024/02/16 00:07:47;;;;;;;5.05;2.80;;;3.40;99.90;;;;;;20530994;28;20579;-40
2024/02/16 00:17:48;;;;;;;9.13;3.88;;;3.60;99.90;;;;;;20532999;28;20077;-40
2024/02/16 00:27:53;;;;;;;7.22;3.38;;;3.60;99.90;;;;;;20532507;28;20279;-41
2024/02/16 00:37:55;;;;;;;7.57;3.38;;;3.50;99.90;;;;;;20531069;28;20164;-42
2024/02/16 00:47:57;;;;;;;5.32;2.80;;;3.80;99.90;;;;;;20545412;28;20092;-41
2024/02/16 00:57:59;;;;;;;6.45;3.00;;;3.80;99.90;;;;;;20544499;28;20225;-40
2024/02/16 01:08:03;;;;;;;7.75;3.13;;;3.70;99.90;;;;;;20545204;28;21167;-40
2024/02/16 01:18:05;;;;;;;6.13;3.10;;;3.50;99.90;;;;;;20521095;28;20570;-41
2024/02/16 01:28:07;;;;;;;5.30;2.83;;;3.40;99.90;;;;;;20539239;28;21250;-42
2024/02/16 01:38:12;;;;;;;7.50;3.22;;;3.50;99.90;;;;;;20544129;28;22182;-41
2024/02/16 01:48:15;;;;;;;8.70;2.92;;;3.60;99.90;;;;;;20540220;28;20128;-40
2024/02/16 01:58:16;;;;;;;8.02;2.85;;;3.50;99.90;;;;;;20542513;28;20192;-41
2024/02/16 02:08:18;;;;;;;4.00;2.30;;;3.40;99.90;;;;;;20539308;28;20140;-41
2024/02/16 02:18:20;;;;;;;3.95;1.92;;;3.40;99.90;;;;;;20536342;28;20061;-41
2024/02/16 02:28:23;;;;;;;3.25;1.65;;;3.50;99.80;;;;;;20538948;28;20195;-42
2024/02/16 02:38:30;;;;;;;5.15;2.10;;;3.70;99.40;;;;;;20536893;28;20041;-41
2024/02/16 02:48:32;;;;;;;3.35;1.52;;;3.50;99.30;;;;;;20533683;28;20057;-40
2024/02/16 02:58:34;;;;;;;3.50;1.30;;;3.10;99.60;;;;;;20534008;28;20219;-40
2024/02/16 03:08:35;;;;;;;4.20;2.00;;;2.80;99.60;;;;;;20532718;28;20156;-41
2024/02/16 03:18:37;;;;;;;4.88;2.38;;;2.70;99.90;;;;;;20532853;28;20124;-41
2024/02/16 03:28:40;;;;;;;4.30;1.73;;;2.70;99.90;;;;;;20531024;28;21299;-40
2024/02/16 03:38:52;;;;;;;5.07;2.47;;;2.80;99.90;;;;;;20533029;28;20870;-40
2024/02/16 03:48:53;;;;;;;5.10;1.80;;;3.10;99.90;;;;;;20534206;28;20894;-41
2024/02/16 03:58:58;;;;;;;3.28;1.52;;;3.40;99.60;;;;;;20510583;28;20128;-43
2024/02/16 04:09:00;;;;;;;5.13;2.03;;;3.80;99.20;;;;;;20528737;28;20160;-40
2024/02/16 04:19:05;;;;;;;3.72;1.80;;;3.80;99.20;;;;;;20533518;28;20303;-40
2024/02/16 04:29:07;;;;;;;4.43;2.03;;;3.80;99.70;;;;;;20530250;28;21262;-43
2024/02/16 04:39:10;;;;;;;4.43;1.98;;;3.70;99.70;;;;;;20530533;28;20164;-41
2024/02/16 04:49:11;;;;;;;4.00;1.73;;;3.70;99.90;;;;;;20526817;28;20180;-41
2024/02/16 04:59:15;;;;;;;5.82;2.10;;;3.80;99.90;;;;;;20524590;28;20818;-41
2024/02/16 05:09:17;;;;;;;2.90;1.40;;;3.90;99.60;;;;;;20529864;28;20811;-43
2024/02/16 05:19:19;;;;;;;3.28;1.70;;;3.90;99.80;;;;;;20542012;28;20893;-41
2024/02/16 05:29:21;;;;;;;3.40;1.48;;;3.80;99.70;;;;;;20544561;28;20065;-41
2024/02/16 05:39:31;;;;;;;3.90;1.75;;;3.60;99.90;;;;;;20543991;28;21576;-40
2024/02/16 05:49:33;;;;;;;3.67;1.73;;;3.50;99.90;;;;;;20539232;28;21053;-40
2024/02/16 05:59:35;;;;;;;4.63;1.88;;;3.50;99.90;;;;;;20541828;28;20244;-44
2024/02/16 06:09:37;;;;;;;4.43;1.92;;;3.30;99.90;;;;;;20539444;28;20557;-40
2024/02/16 06:19:40;;;;;;;5.03;2.08;;;3.10;99.90;;;;;;20539476;28;20179;-42
2024/02/16 06:29:42;;;;;;;3.95;1.95;;;3.10;99.90;;;;;;20535984;28;20243;-42
2024/02/16 06:39:44;;;;;;;4.05;1.85;;;3.00;99.90;;;;;;20536571;28;20155;-41
2024/02/16 06:49:48;;;;;;;6.25;2.45;;;3.00;99.90;;;;;;20533853;28;20164;-40
2024/02/16 06:59:53;;;;;;;5.30;2.38;;;3.10;99.90;;;;;;20528194;28;20539;-40
2024/02/16 07:09:58;;;;;;;5.20;2.30;;;2.90;99.90;;;;;;20510712;28;20192;-41
2024/02/16 07:20:03;;;;;;;4.95;2.22;;;3.00;99.90;;;;;;20528546;28;20166;-41
2024/02/16 07:30:05;;;;;;;5.47;2.22;;;3.20;99.90;;;;;;20530940;28;20069;-43
2024/02/16 07:40:09;;;;;;;4.07;2.15;;;3.50;99.90;;;;;;20527358;28;20578;-42
2024/02/16 07:50:11;;;;;;;4.97;2.50;;;4.20;99.90;;;;;;20527716;28;20299;-42
2024/02/16 08:00:15;;;;;;;6.45;2.28;;;5.00;99.90;;;;;;20530498;28;20212;-42
2024/02/16 08:10:21;;;;;;;5.07;2.40;;;5.60;99.90;;;;;;20525345;28;20128;-41
2024/02/16 08:20:23;;;;;;;4.75;2.65;;;6.70;99.30;;;;;;20529398;28;20566;-42
2024/02/16 08:30:25;;;;;;;5.15;2.00;;;8.00;96.50;;;;;;20523494;28;21728;-45
2024/02/16 08:40:27;;;;;;;4.15;2.35;;;9.40;95.00;;;;;;20521359;28;20219;-43
2024/02/16 08:50:29;;;;;;;4.43;2.10;;;10.30;93.80;;;;;;20533823;28;21318;-44
2024/02/16 09:00:30;;;;;;;4.70;1.98;;;10.90;93.00;;;;;;20542103;28;20578;-43
2024/02/16 09:10:33;;;;;;;5.50;2.50;;;11.40;91.80;;;;;;20539467;28;20572;-42
2024/02/16 09:20:35;;;;;;;4.40;2.45;;;11.80;91.70;;;;;;20540100;28;20159;-42
2024/02/16 09:30:39;;;;;;;5.32;2.78;;;11.80;91.40;;;;;;20536017;28;20069;-42
2024/02/16 09:40:41;;;;;;;7.53;2.78;;;12.30;90.50;;;;;;20533486;28;20247;-41
2024/02/16 09:50:45;;;;;;;6.93;3.28;;;12.70;89.60;;;;;;20535707;28;20563;-41
2024/02/16 10:00:55;;;;;;;6.15;2.88;;;13.30;89.80;;;;;;20536251;28;20136;-41
2024/02/16 10:11:07;;;;;;;10.88;3.40;;;13.50;89.10;;;;;;20536329;28;21534;-41
2024/02/16 10:21:12;;;;;;;9.18;4.13;;;12.80;89.60;;;;;;20534741;28;20045;-41
2024/02/16 10:31:14;;;;;;;6.60;3.42;;;12.20;89.40;;;;;;20519841;28;21843;-41
2024/02/16 10:41:18;;;;;;;11.27;4.82;;;12.30;89.20;;;;;;20532888;28;20175;-43
2024/02/16 10:51:46;;;;;;;12.82;6.35;;;12.60;89.10;;;;;;20534838;28;20711;-43
2024/02/16 11:01:58;;;;;;;12.15;6.15;;;12.90;90.10;;;;;;20531839;28;22145;-42
2024/02/16 11:12:08;;;;;;;13.82;6.38;;;13.10;91.20;;;;;;20529025;28;21164;-41
2024/02/16 11:22:11;;;;;;;12.27;6.57;;;13.20;90.40;;;;;;20531889;28;20175;-41
2024/02/16 11:32:15;;;;;;;13.63;7.00;;;13.40;91.60;;;;;;20530450;28;20959;-41
2024/02/16 11:42:20;;;;;;;16.38;7.60;;;13.50;91.30;;;;;;20530090;28;20179;-41
2024/02/16 11:52:25;;;;;;;17.10;7.80;;;13.60;90.70;;;;;;20525370;28;20152;-42
2024/02/16 12:02:27;;;;;;;19.92;10.73;;;13.40;91.30;;;;;;20531108;28;21817;-42
2024/02/16 12:12:31;;;;;;;18.95;10.70;;;13.20;91.70;;;;;;20531439;28;20065;-41
2024/02/16 12:22:32;;;;;;;19.63;10.68;;;13.00;92.10;;;;;;20528337;28;20176;-41
2024/02/16 12:32:34;;;;;;;20.08;10.93;;;13.00;93.40;;;;;;20541299;28;20188;-41
2024/02/16 12:42:36;;;;;;;21.70;10.52;;;13.50;92.80;;;;;;20542017;28;20456;-41
2024/02/16 12:52:38;;;;;;;19.27;11.25;;;13.70;91.90;;;;;;20543993;28;20747;-42
2024/02/16 13:02:40;;;;;;;19.85;11.38;;;13.50;92.80;;;;;;20538067;28;20175;-41
2024/02/16 13:12:45;;;;;;;25.08;14.38;;;12.90;92.80;;;;;;20539709;28;20128;-42
2024/02/16 13:22:46;;;;;;;22.40;13.23;;;12.40;94.00;;;;;;20541456;28;20179;-41
2024/02/16 13:32:48;;;;;;;26.25;15.48;;;12.20;94.20;;;;;;20537822;28;20084;-41
2024/02/16 13:42:50;;;;;;;32.38;19.15;;;11.90;94.50;;;;;;20520563;28;20219;-40
2024/02/16 13:52:52;;;;;;;35.83;21.40;;;11.50;95.20;;;;;;20534439;28;20193;-40
2024/02/16 14:02:55;;;;;;;35.88;19.85;;;11.10;96.60;;;;;;20536509;28;21654;-43
2024/02/16 14:12:56;;;;;;;51.15;31.92;;;11.40;96.80;;;;;;20536837;28;20263;-40
2024/02/16 14:22:58;;;;;;;51.95;32.05;;;11.50;97.60;;;;;;20535141;28;20124;-41
2024/02/16 14:33:00;;;;;;;49.13;32.33;;;10.90;98.50;;;;;;20534979;28;20286;-43
2024/02/16 14:43:02;;;;;;;53.97;33.05;;;10.70;99.10;;;;;;20533155;28;20037;-40
2024/02/16 14:53:04;;;;;;;51.47;33.60;;;10.60;99.20;;;;;;20530815;28;20132;-40
2024/02/16 15:03:06;;;;;;;53.83;34.30;;;10.50;99.40;;;;;;20530631;28;21331;-42
2024/02/16 15:13:08;;;;;;;53.00;33.92;;;10.30;99.70;;;;;;20535993;28;20171;-40
2024/02/16 15:23:09;;;;;;;51.63;32.63;;;9.90;99.90;;;;;;20531850;28;20498;-40
2024/02/16 15:33:11;;;;;;;50.00;29.80;;;9.50;99.90;;;;;;20533105;28;20195;-40
2024/02/16 15:43:13;;;;;;;51.28;30.75;;;9.00;99.90;;;;;;20525467;28;20259;-40
2024/02/16 15:53:15;;;;;;;53.50;29.85;;;8.60;99.90;;;;;;20529039;28;20296;-40
2024/02/16 16:03:19;;;;;;;51.85;30.95;;;7.90;99.90;;;;;;20526617;28;20116;-40
2024/02/16 16:13:24;;;;;;;49.47;27.98;;;7.20;99.90;;;;;;20509830;28;20112;-40
2024/02/16 16:23:30;;;;;;;30.17;18.40;;;6.60;99.90;;;;;;20507287;28;20176;-40
2024/02/16 16:33:32;;;;;;;25.05;13.65;;;6.10;99.90;;;;;;20523563;28;20571;-40
2024/02/16 16:43:34;;;;;;;36.70;20.50;;;5.60;99.90;;;;;;20526658;28;20318;-41
2024/02/16 16:53:36;;;;;;;28.35;15.30;;;5.10;99.90;;;;;;20524654;28;20160;-40
2024/02/16 17:03:38;;;;;;;24.58;12.25;;;4.90;99.90;;;;;;20523513;28;20207;-40
2024/02/16 17:13:40;;;;;;;25.30;12.55;;;4.70;99.90;;;;;;20518154;28;20156;-40
2024/02/16 17:23:43;;;;;;;32.58;17.92;;;4.40;99.90;;;;;;20538759;28;21232;-42
2024/02/16 17:33:45;;;;;;;24.98;14.00;;;4.30;99.90;;;;;;20537652;28;20152;-41
2024/02/16 17:43:47;;;;;;;21.42;10.10;;;4.20;99.90;;;;;;20537955;28;20266;-40
2024/02/16 17:53:49;;;;;;;18.75;8.63;;;3.90;99.90;;;;;;20537294;28;20136;-41
2024/02/16 18:03:51;;;;;;;14.50;7.57;;;4.10;99.90;;;;;;20538999;28;20180;-40
2024/02/16 18:13:54;;;;;;;15.05;7.22;;;4.10;99.90;;;;;;20521045;28;20061;-39
2024/02/16 18:23:59;;;;;;;19.52;9.07;;;4.20;99.90;;;;;;20533539;28;20560;-40
2024/02/16 18:34:02;;;;;;;17.10;8.63;;;4.10;99.90;;;;;;20532155;28;20164;-40
2024/02/16 18:44:05;;;;;;;15.40;7.63;;;4.00;99.90;;;;;;20508337;28;20874;-40
2024/02/16 18:54:10;;;;;;;17.42;7.47;;;3.90;99.90;;;;;;20532743;28;20202;-40
2024/02/16 19:04:17;;;;;;;16.13;7.75;;;4.00;99.90;;;;;;20533247;28;20172;-40
2024/02/16 19:14:23;;;;;;;12.23;5.97;;;4.00;99.90;;;;;;20512360;28;20164;-40
2024/02/16 19:24:28;;;;;;;9.25;4.95;;;3.70;99.90;;;;;;20529911;28;20128;-41
2024/02/16 19:34:30;;;;;;;15.48;6.63;;;3.70;99.90;;;;;;20530778;28;20178;-42
2024/02/16 19:44:35;;;;;;;13.50;5.82;;;3.80;99.90;;;;;;20528903;28;20263;-40
2024/02/16 19:54:37;;;;;;;12.93;6.50;;;3.90;99.90;;;;;;20529517;28;20203;-43
2024/02/16 20:04:39;;;;;;;15.68;7.30;;;4.10;99.90;;;;;;20529713;28;20053;-40
2024/02/16 20:14:41;;;;;;;15.75;7.20;;;4.30;99.90;;;;;;20531750;28;20096;-40
2024/02/16 20:24:43;;;;;;;15.35;7.47;;;4.40;99.90;;;;;;20531739;28;20132;-43
2024/02/16 20:34:45;;;;;;;17.73;9.13;;;4.50;99.90;;;;;;20531811;28;20061;-41
2024/02/16 20:44:47;;;;;;;16.63;8.77;;;4.50;99.90;;;;;;20533471;28;20901;-42
2024/02/16 20:54:49;;;;;;;16.60;8.75;;;4.70;99.90;;;;;;20545326;28;20863;-41
2024/02/16 21:04:54;;;;;;;15.23;7.88;;;4.70;99.90;;;;;;20520289;28;20144;-40
2024/02/16 21:14:56;;;;;;;9.73;4.88;;;4.70;99.90;;;;;;20536442;28;21246;-41
2024/02/16 21:25:01;;;;;;;7.88;3.42;;;4.80;99.90;;;;;;20535747;28;20073;-40
2024/02/16 21:35:03;;;;;;;6.20;3.58;;;4.90;99.90;;;;;;20535996;28;21196;-43
2024/02/16 21:45:07;;;;;;;6.72;4.00;;;5.10;99.90;;;;;;20520466;28;20587;-41
2024/02/16 21:55:08;;;;;;;5.40;2.85;;;5.30;99.90;;;;;;20540719;28;20128;-41
2024/02/16 22:05:10;;;;;;;6.53;2.83;;;5.40;99.90;;;;;;20542382;28;20137;-41
2024/02/16 22:15:12;;;;;;;4.68;2.78;;;5.40;99.90;;;;;;20520170;28;20176;-42
2024/02/16 22:25:14;;;;;;;6.05;2.30;;;5.40;99.90;;;;;;20537258;28;20156;-42
2024/02/16 22:35:16;;;;;;;4.93;1.92;;;5.40;99.90;;;;;;20538352;28;20138;-42
2024/02/16 22:45:18;;;;;;;4.10;2.20;;;5.40;99.90;;;;;;20538833;28;20102;-41
2024/02/16 22:55:22;;;;;;;5.15;1.98;;;5.50;99.90;;;;;;20516073;28;20459;-42
2024/02/16 23:05:24;;;;;;;3.20;1.70;;;5.40;99.90;;;;;;20528776;28;20183;-41
2024/02/16 23:15:27;;;;;;;3.72;2.30;;;5.40;99.90;;;;;;20530251;28;20132;-41
2024/02/16 23:25:29;;;;;;;7.18;2.53;;;5.40;99.90;;;;;;20513334;28;20164;-41
2024/02/16 23:35:31;;;;;;;4.03;2.60;;;5.40;99.90;;;;;;20528862;28;20136;-43
2024/02/16 23:45:36;;;;;;;4.65;2.40;;;5.40;99.90;;;;;;20481871;28;1423682;-41
2024/02/16 23:55:38;;;;;;;5.60;2.42;;;5.40;99.90;;;;;;20530555;28;20179;-41
